Terminal Aerodrome Forecast
Issued by NWS

Home | Current Version | Previous Version | Text Only | Print | Product List | Glossary On
Versions: 1 2 3 4 5 6 7 8 9 10 11 12 13 14 15 16
103
FTUS45 KRIW 180149 AAB
TAFCPR
TAF AMD
KCPR 180149Z 1802/1824 35009G15KT P6SM VCSH SCT012 OVC030
     FM180300 33008KT P6SM VCSH SCT020 BKN070
     FM180600 28008KT P6SM SCT080=

USA.gov is the U.S. government's official web portal to all federal, state and local government web resources and services.